createdAt,value
2022-11-18T00:01:09.380Z,64.51
2022-11-18T00:03:37.503Z,64.56
2022-11-18T00:06:05.961Z,64.67
2022-11-18T00:08:32.955Z,64.75
2022-11-18T00:11:05.993Z,65.08
2022-11-18T00:13:51.524Z,64.95
2022-11-18T00:16:18.483Z,64.50
2022-11-18T00:18:45.347Z,64.24
2022-11-18T00:21:12.794Z,64.62
2022-11-18T00:23:40.269Z,64.98
2022-11-18T00:26:10.185Z,65.03
2022-11-18T00:28:37.163Z,64.72
2022-11-18T00:31:12.412Z,64.69
2022-11-18T00:33:39.683Z,64.81
2022-11-18T00:36:09.565Z,65.01
2022-11-18T00:38:36.457Z,65.04
2022-11-18T00:41:05.977Z,64.85
2022-11-18T00:43:34.063Z,65.40
2022-11-18T00:46:01.703Z,64.97
2022-11-18T00:48:29.034Z,64.92
2022-11-18T00:50:58.953Z,65.40
2022-11-18T00:53:27.222Z,64.99
2022-11-18T00:55:54.508Z,64.77
2022-11-18T00:58:21.699Z,64.70
2022-11-18T01:00:51.775Z,65.21
2022-11-18T01:03:20.137Z,64.63
2022-11-18T01:05:47.419Z,64.64
2022-11-18T01:08:15.010Z,64.62
2022-11-18T01:10:42.113Z,64.67
2022-11-18T01:13:20.244Z,64.23
2022-11-18T01:15:53.376Z,64.55
2022-11-18T01:18:23.489Z,64.67
2022-11-18T01:20:50.481Z,64.48
2022-11-18T01:23:19.252Z,64.34
2022-11-18T01:25:48.987Z,64.75
2022-11-18T01:28:23.368Z,64.56
2022-11-18T01:30:51.047Z,64.25
2022-11-18T01:33:18.014Z,64.21
2022-11-18T01:35:45.427Z,64.04
2022-11-18T01:38:14.039Z,64.46
2022-11-18T01:40:41.706Z,64.14
2022-11-18T01:43:18.213Z,64.66
2022-11-18T01:45:47.407Z,64.08
2022-11-18T01:48:17.275Z,64.30
2022-11-18T01:50:51.311Z,64.09
2022-11-18T01:53:31.297Z,63.89
2022-11-18T01:56:03.139Z,63.89
2022-11-18T01:58:36.879Z,64.06
2022-11-18T02:01:05.628Z,64.34
2022-11-18T02:03:33.442Z,63.92
2022-11-18T02:06:02.541Z,64.37
2022-11-18T02:08:30.837Z,64.49
2022-11-18T02:10:57.729Z,64.37
2022-11-18T02:13:25.366Z,64.50
2022-11-18T02:16:21.802Z,64.24
2022-11-18T02:18:56.204Z,64.37
2022-11-18T02:21:38.007Z,64.17
2022-11-18T02:24:23.611Z,64.11
2022-11-18T02:27:27.530Z,64.22
2022-11-18T02:30:10.279Z,64.30
2022-11-18T02:32:49.087Z,64.44
2022-11-18T02:35:18.628Z,64.17
2022-11-18T02:37:56.866Z,64.39
2022-11-18T02:40:28.210Z,64.21
2022-11-18T02:43:18.553Z,63.95
2022-11-18T02:45:51.210Z,64.06
2022-11-18T02:48:20.366Z,64.31
2022-11-18T02:50:50.526Z,63.76
2022-11-18T02:53:20.968Z,64.34
2022-11-18T02:55:49.824Z,64.17
2022-11-18T02:58:19.015Z,64.21
2022-11-18T03:00:53.816Z,64.60
2022-11-18T03:03:29.818Z,64.70
2022-11-18T03:06:05.879Z,63.92
2022-11-18T03:08:48.853Z,64.35
2022-11-18T03:11:24.056Z,64.31
2022-11-18T03:14:15.897Z,64.23
2022-11-18T03:16:51.554Z,64.31
2022-11-18T03:19:44.230Z,64.45
2022-11-18T03:22:23.666Z,64.13
2022-11-18T03:25:00.932Z,64.04
2022-11-18T03:27:37.196Z,63.79
2022-11-18T03:30:12.872Z,64.15
2022-11-18T03:32:44.708Z,64.03
2022-11-18T03:35:22.336Z,63.88
2022-11-18T03:37:52.740Z,64.25
2022-11-18T03:40:24.979Z,64.25
2022-11-18T03:42:57.183Z,64.08
2022-11-18T03:45:29.310Z,64.14
2022-11-18T03:48:05.381Z,64.34
2022-11-18T03:50:36.344Z,64.45
2022-11-18T03:53:03.755Z,64.33
2022-11-18T03:55:37.720Z,64.53
2022-11-18T03:58:19.867Z,64.21
2022-11-18T04:00:50.483Z,64.18
2022-11-18T04:03:17.614Z,63.87
2022-11-18T04:05:44.918Z,64.26
2022-11-18T04:08:19.262Z,64.29
2022-11-18T04:10:55.410Z,64.32
2022-11-18T04:13:27.249Z,64.02
2022-11-18T04:15:55.606Z,64.13
2022-11-18T04:18:22.969Z,64.14
2022-11-18T04:20:49.922Z,64.01
2022-11-18T04:23:16.882Z,63.51
2022-11-18T04:25:43.819Z,63.93
2022-11-18T04:28:10.778Z,64.06
2022-11-18T04:30:37.716Z,63.70
2022-11-18T04:33:05.308Z,63.75
2022-11-18T04:35:32.261Z,64.16
2022-11-18T04:37:59.203Z,63.91
2022-11-18T04:40:26.268Z,63.68
2022-11-18T04:42:53.189Z,63.94
2022-11-18T04:45:20.114Z,63.95
2022-11-18T04:47:47.012Z,63.69
2022-11-18T04:50:13.995Z,63.81
2022-11-18T04:52:40.984Z,63.76
2022-11-18T04:55:08.310Z,64.10
2022-11-18T04:57:35.238Z,64.26
2022-11-18T05:00:02.106Z,64.14
2022-11-18T05:02:31.301Z,63.92
2022-11-18T05:04:58.313Z,63.72
2022-11-18T05:07:25.305Z,63.72
2022-11-18T05:09:52.210Z,63.96
2022-11-18T05:12:37.604Z,63.80
2022-11-18T05:15:04.874Z,63.85
2022-11-18T05:17:31.904Z,63.77
2022-11-18T05:19:58.945Z,63.98
2022-11-18T05:22:25.855Z,63.71
2022-11-18T05:24:52.752Z,63.67
2022-11-18T05:27:19.698Z,63.49
2022-11-18T05:29:46.678Z,63.85
2022-11-18T05:32:13.858Z,64.04
2022-11-18T05:34:42.209Z,63.84
2022-11-18T05:37:09.657Z,63.63
2022-11-18T05:39:36.772Z,63.40
2022-11-18T05:42:22.614Z,63.37
2022-11-18T05:44:57.416Z,63.39
2022-11-18T05:47:25.435Z,63.80
2022-11-18T05:49:52.336Z,63.50
2022-11-18T05:52:19.272Z,63.27
2022-11-18T05:54:50.311Z,63.67
2022-11-18T05:57:17.313Z,63.88
2022-11-18T05:59:44.248Z,63.81
2022-11-18T06:02:17.000Z,63.88
2022-11-18T06:04:49.345Z,63.95
2022-11-18T06:07:25.527Z,64.04
2022-11-18T06:09:58.748Z,63.91
2022-11-18T06:12:36.029Z,64.15
2022-11-18T06:15:18.501Z,64.68
2022-11-18T06:17:51.368Z,64.45
2022-11-18T06:20:21.031Z,63.88
2022-11-18T06:22:50.278Z,64.05
2022-11-18T06:25:17.727Z,64.04
2022-11-18T06:27:46.397Z,64.36
2022-11-18T06:30:14.128Z,64.06
2022-11-18T06:32:41.090Z,63.79
2022-11-18T06:35:08.721Z,63.69
2022-11-18T06:37:35.679Z,63.63
2022-11-18T06:40:03.125Z,63.76
2022-11-18T06:42:49.623Z,63.76
2022-11-18T06:45:16.922Z,63.65
2022-11-18T06:47:44.016Z,63.65
2022-11-18T06:50:11.190Z,63.78
2022-11-18T06:52:38.136Z,64.01
2022-11-18T06:55:08.449Z,64.34
2022-11-18T06:57:35.860Z,64.17
2022-11-18T07:00:03.182Z,63.89
2022-11-18T07:02:32.173Z,63.89
2022-11-18T07:04:59.126Z,64.60
2022-11-18T07:07:26.298Z,64.45
2022-11-18T07:09:53.279Z,64.00
2022-11-18T07:12:20.199Z,64.03
2022-11-18T07:14:47.205Z,63.87
2022-11-18T07:17:14.188Z,64.09
2022-11-18T07:19:41.147Z,63.92
2022-11-18T07:22:10.723Z,63.76
2022-11-18T07:24:38.120Z,63.99
2022-11-18T07:27:05.075Z,63.78
2022-11-18T07:29:32.046Z,63.76
2022-11-18T07:31:59.018Z,63.84
2022-11-18T07:34:26.026Z,63.83
2022-11-18T07:36:53.059Z,63.73
2022-11-18T07:39:20.339Z,63.11
2022-11-18T07:41:47.508Z,63.42
2022-11-18T07:44:14.743Z,63.31
2022-11-18T07:46:41.680Z,63.82
2022-11-18T07:49:09.349Z,63.39
2022-11-18T07:51:38.714Z,63.25
2022-11-18T07:54:10.530Z,63.56
2022-11-18T07:56:38.040Z,62.85
2022-11-18T07:59:05.893Z,62.79
2022-11-18T08:01:32.922Z,62.82
2022-11-18T08:04:08.734Z,62.79
2022-11-18T08:06:36.077Z,62.42
2022-11-18T08:09:04.604Z,62.46
2022-11-18T08:11:31.918Z,63.04
2022-11-18T08:13:58.904Z,62.39
2022-11-18T08:16:26.843Z,62.52
2022-11-18T08:18:54.602Z,62.44
2022-11-18T08:21:23.116Z,62.05
2022-11-18T08:23:55.151Z,61.84
2022-11-18T08:26:22.201Z,61.93
2022-11-18T08:28:49.953Z,62.32
2022-11-18T08:31:19.678Z,62.27
2022-11-18T08:33:47.577Z,61.77
2022-11-18T08:36:21.233Z,61.64
2022-11-18T08:38:48.758Z,62.39
2022-11-18T08:41:25.769Z,62.64
2022-11-18T08:43:52.660Z,62.37
2022-11-18T08:46:20.121Z,61.85
2022-11-18T08:48:47.113Z,61.62
2022-11-18T08:51:14.528Z,61.93
2022-11-18T08:53:41.898Z,61.56
2022-11-18T08:56:15.548Z,62.02
2022-11-18T08:58:43.615Z,61.73
2022-11-18T09:01:11.389Z,61.59
2022-11-18T09:03:38.530Z,62.24
2022-11-18T09:06:17.337Z,62.17
2022-11-18T09:08:44.882Z,61.92
2022-11-18T09:11:13.762Z,61.77
2022-11-18T09:14:04.272Z,61.88
2022-11-18T09:16:30.845Z,61.62
2022-11-18T09:19:02.082Z,61.57
2022-11-18T09:21:41.084Z,61.33
2022-11-18T09:24:08.928Z,62.25
2022-11-18T09:26:35.842Z,61.85
2022-11-18T09:29:02.897Z,61.66
2022-11-18T09:31:30.091Z,61.97
2022-11-18T09:34:00.507Z,61.56
2022-11-18T09:36:27.888Z,61.79
2022-11-18T09:38:54.885Z,61.71
2022-11-18T09:41:40.106Z,61.86
2022-11-18T09:44:37.624Z,62.17
2022-11-18T09:47:07.461Z,62.06
2022-11-18T09:49:37.576Z,61.61
2022-11-18T09:52:10.623Z,61.86
2022-11-18T09:54:39.222Z,61.84
2022-11-18T09:57:24.485Z,62.03
2022-11-18T09:59:52.559Z,62.10
2022-11-18T10:02:38.043Z,61.94
2022-11-18T10:05:19.394Z,62.32
2022-11-18T10:07:54.931Z,61.93
2022-11-18T10:10:29.888Z,61.70
2022-11-18T10:13:03.876Z,61.83
2022-11-18T10:15:31.074Z,61.89
2022-11-18T10:18:45.085Z,62.00
2022-11-18T10:21:24.171Z,62.58
2022-11-18T10:23:51.022Z,61.97
2022-11-18T10:26:36.296Z,62.45
2022-11-18T10:29:04.243Z,62.80
2022-11-18T10:31:31.234Z,62.90
2022-11-18T10:34:02.336Z,62.76
2022-11-18T10:36:32.422Z,63.03
2022-11-18T10:39:07.471Z,62.78
2022-11-18T10:41:50.156Z,63.32
2022-11-18T10:44:40.946Z,64.01
2022-11-18T10:47:23.399Z,63.22
2022-11-18T10:49:52.041Z,63.07
2022-11-18T10:52:19.363Z,63.72
2022-11-18T10:55:04.903Z,63.58
2022-11-18T10:57:37.082Z,63.40
2022-11-18T11:00:04.769Z,63.24
2022-11-18T11:02:34.831Z,63.50
2022-11-18T11:05:05.333Z,63.44
2022-11-18T11:07:35.263Z,63.85
2022-11-18T11:10:05.267Z,64.13
2022-11-18T11:12:47.365Z,64.18
2022-11-18T11:15:21.015Z,63.85
2022-11-18T11:18:19.509Z,64.38
2022-11-18T11:20:46.501Z,64.29
2022-11-18T11:23:22.117Z,63.63
2022-11-18T11:29:57.894Z,63.81
2022-11-18T11:32:41.793Z,63.53
2022-11-18T11:35:25.368Z,64.03
2022-11-18T11:37:55.243Z,64.48
2022-11-18T11:40:35.080Z,65.01
2022-11-18T11:43:17.279Z,64.29
2022-11-18T11:46:05.789Z,64.02
2022-11-18T11:48:51.033Z,64.32
2022-11-18T11:51:27.009Z,64.26
2022-11-18T11:54:21.116Z,64.54
2022-11-18T11:56:54.087Z,64.34
2022-11-18T11:59:36.206Z,64.71
2022-11-18T12:03:05.124Z,64.17
2022-11-18T12:05:43.277Z,63.88
2022-11-18T12:08:15.144Z,63.56
2022-11-18T12:10:45.020Z,63.59
2022-11-18T12:13:21.197Z,63.86
2022-11-18T12:16:14.737Z,64.19
2022-11-18T12:19:15.815Z,64.22
2022-11-18T12:21:44.101Z,64.23
2022-11-18T12:24:24.574Z,64.48
2022-11-18T12:26:52.000Z,64.58
2022-11-18T12:29:25.771Z,64.53
2022-11-18T12:31:56.275Z,63.88
2022-11-18T12:34:26.175Z,64.44
2022-11-18T12:36:54.266Z,64.29
2022-11-18T12:39:24.067Z,64.16
2022-11-18T12:42:09.663Z,64.61
2022-11-18T12:44:39.313Z,64.85
2022-11-18T12:47:16.919Z,65.24
2022-11-18T12:49:44.318Z,65.07
2022-11-18T12:52:31.516Z,65.26
2022-11-18T12:55:01.349Z,65.12
2022-11-18T12:57:33.984Z,64.66
2022-11-18T13:00:22.898Z,65.11
2022-11-18T13:02:57.929Z,65.02
2022-11-18T13:05:31.011Z,64.54
2022-11-18T13:08:13.786Z,64.39
2022-11-18T13:10:43.915Z,64.86
2022-11-18T13:13:30.864Z,64.77
2022-11-18T13:16:24.036Z,64.60
2022-11-18T13:18:52.803Z,65.09
2022-11-18T13:21:48.708Z,64.55
2022-11-18T13:24:18.471Z,64.77
2022-11-18T13:26:46.653Z,64.80
2022-11-18T13:29:28.600Z,64.57
2022-11-18T13:32:16.784Z,65.39
2022-11-18T13:34:49.819Z,65.02
2022-11-18T13:37:28.316Z,65.33
2022-11-18T13:39:55.737Z,65.05
2022-11-18T13:42:27.737Z,64.59
2022-11-18T13:44:58.898Z,64.65
2022-11-18T13:47:28.465Z,64.35
2022-11-18T13:50:23.111Z,64.64
2022-11-18T13:53:21.901Z,64.19
2022-11-18T13:56:04.561Z,64.66
2022-11-18T14:01:38.109Z,64.80
2022-11-18T14:04:15.231Z,65.10
2022-11-18T14:06:42.486Z,64.48
2022-11-18T14:09:16.769Z,64.63
2022-11-18T14:11:58.262Z,64.76
2022-11-18T14:14:40.113Z,64.50
2022-11-18T14:17:18.041Z,64.78
2022-11-18T14:19:45.864Z,64.81
2022-11-18T14:22:19.566Z,64.83
2022-11-18T14:25:00.488Z,65.24
2022-11-18T14:27:42.727Z,65.30
2022-11-18T14:30:34.521Z,64.97
2022-11-18T14:33:19.245Z,65.67
2022-11-18T14:35:54.650Z,65.40
2022-11-18T14:41:43.574Z,65.64
2022-11-18T14:44:13.612Z,65.26
2022-11-18T14:46:43.411Z,65.77
2022-11-18T14:49:18.179Z,65.19
2022-11-18T14:51:46.200Z,65.43
2022-11-18T14:54:17.234Z,65.66
2022-11-18T14:56:49.382Z,65.74
2022-11-18T14:59:18.601Z,65.91
2022-11-18T15:01:46.583Z,66.43
2022-11-18T15:04:15.679Z,65.96
2022-11-18T15:06:42.750Z,66.32
2022-11-18T15:09:09.633Z,65.66
2022-11-18T15:11:36.577Z,66.29
2022-11-18T15:14:04.169Z,66.64
2022-11-18T15:16:34.317Z,66.41
2022-11-18T15:19:03.319Z,66.55
2022-11-18T15:21:30.535Z,66.06
2022-11-18T15:23:57.451Z,66.00
2022-11-18T15:26:27.389Z,66.22
2022-11-18T15:28:56.266Z,66.11
2022-11-18T15:31:24.970Z,65.94
2022-11-18T15:33:52.840Z,66.25
2022-11-18T15:36:27.384Z,67.05
2022-11-18T15:38:55.693Z,67.03
2022-11-18T15:41:26.209Z,66.51
2022-11-18T15:43:55.102Z,66.34
2022-11-18T15:46:23.618Z,66.40
2022-11-18T15:48:58.413Z,66.57
2022-11-18T15:51:28.599Z,66.84
2022-11-18T15:53:55.658Z,66.96
2022-11-18T15:56:30.682Z,67.32
2022-11-18T15:59:00.527Z,66.85
2022-11-18T16:01:36.153Z,66.96
2022-11-18T16:04:04.476Z,67.09
2022-11-18T16:06:31.992Z,66.77
2022-11-18T16:09:00.323Z,67.03
2022-11-18T16:11:47.897Z,66.76
2022-11-18T16:14:17.694Z,66.89
2022-11-18T16:16:46.978Z,67.03
2022-11-18T16:19:16.882Z,66.39
2022-11-18T16:21:47.229Z,66.72
2022-11-18T16:24:26.458Z,66.98
2022-11-18T16:26:53.395Z,67.15
2022-11-18T16:29:20.999Z,66.69
2022-11-18T16:31:54.432Z,66.78
2022-11-18T16:34:24.820Z,66.66
2022-11-18T16:37:01.297Z,66.57
2022-11-18T16:39:29.620Z,66.49
2022-11-18T16:42:06.945Z,66.47
2022-11-18T16:44:35.581Z,66.47
2022-11-18T16:47:03.274Z,66.48
2022-11-18T16:49:31.447Z,66.68
2022-11-18T16:51:58.400Z,66.83
2022-11-18T16:54:27.555Z,67.17
2022-11-18T16:56:57.148Z,67.29
2022-11-18T16:59:27.348Z,67.47
2022-11-18T17:01:56.874Z,67.09
2022-11-18T17:04:25.624Z,67.43
2022-11-18T17:06:53.671Z,67.52
2022-11-18T17:09:23.257Z,67.41
2022-11-18T17:11:52.524Z,67.87
2022-11-18T17:14:22.525Z,67.72
2022-11-18T17:16:50.621Z,67.22
2022-11-18T17:19:20.149Z,67.37
2022-11-18T17:21:47.936Z,67.44
2022-11-18T17:24:18.011Z,67.73
2022-11-18T17:26:45.817Z,67.81
2022-11-18T17:29:13.350Z,67.06
2022-11-18T17:31:41.552Z,67.51
2022-11-18T17:34:13.170Z,67.19
2022-11-18T17:36:40.873Z,67.88
2022-11-18T17:39:10.940Z,67.63
2022-11-18T17:41:57.074Z,67.63
2022-11-18T17:44:24.750Z,67.38
2022-11-18T17:46:51.828Z,67.57
2022-11-18T17:49:21.316Z,67.80
2022-11-18T17:51:48.748Z,67.61
2022-11-18T17:54:16.252Z,67.58
2022-11-18T17:56:43.604Z,67.47
2022-11-18T17:59:11.591Z,67.16
2022-11-18T18:01:38.589Z,67.50
2022-11-18T18:04:05.633Z,67.28
2022-11-18T18:06:32.534Z,67.30
2022-11-18T18:08:59.849Z,67.16
2022-11-18T18:11:27.466Z,68.15
2022-11-18T18:14:13.282Z,67.88
2022-11-18T18:16:51.063Z,67.62
2022-11-18T18:19:20.488Z,67.58
2022-11-18T18:21:47.837Z,68.05
2022-11-18T18:24:17.559Z,67.46
2022-11-18T18:26:44.834Z,67.25
2022-11-18T18:29:12.917Z,67.39
2022-11-18T18:31:39.922Z,67.28
2022-11-18T18:34:06.891Z,67.04
2022-11-18T18:36:33.846Z,67.22
2022-11-18T18:39:02.339Z,66.98
2022-11-18T18:41:29.923Z,67.08
2022-11-18T18:43:57.014Z,67.32
2022-11-18T18:46:29.025Z,67.60
2022-11-18T18:49:06.206Z,67.51
2022-11-18T18:51:42.774Z,67.56
2022-11-18T18:54:16.152Z,67.89
2022-11-18T18:56:43.216Z,67.26
2022-11-18T18:59:10.242Z,67.17
2022-11-18T19:01:38.216Z,67.21
2022-11-18T19:04:07.716Z,67.07
2022-11-18T19:06:59.014Z,67.27
2022-11-18T19:09:25.056Z,67.09
2022-11-18T19:12:12.235Z,67.58
2022-11-18T19:14:39.419Z,67.65
2022-11-18T19:17:11.113Z,67.45
2022-11-18T19:19:59.541Z,67.11
2022-11-18T19:22:30.252Z,67.33
2022-11-18T19:24:57.791Z,67.37
2022-11-18T19:27:25.335Z,67.45
2022-11-18T19:29:52.219Z,67.23
2022-11-18T19:32:19.185Z,67.36
2022-11-18T19:34:46.106Z,67.26
2022-11-18T19:37:13.036Z,67.41
2022-11-18T19:39:39.908Z,66.94
2022-11-18T19:42:07.640Z,67.55
2022-11-18T19:44:34.590Z,67.48
2022-11-18T19:47:01.528Z,67.30
2022-11-18T19:49:28.488Z,67.44
2022-11-18T19:51:55.410Z,67.69
2022-11-18T19:54:22.321Z,67.59
2022-11-18T19:56:49.271Z,68.05
2022-11-18T19:59:16.364Z,67.44
2022-11-18T20:01:43.656Z,67.50
2022-11-18T20:04:10.624Z,67.64
2022-11-18T20:06:37.914Z,66.98
2022-11-18T20:09:09.569Z,67.69
2022-11-18T20:11:36.570Z,67.42
2022-11-18T20:14:03.769Z,67.36
2022-11-18T20:16:30.804Z,67.33
2022-11-18T20:19:00.275Z,66.84
2022-11-18T20:21:29.217Z,66.88
2022-11-18T20:24:01.574Z,66.98
2022-11-18T20:26:34.836Z,67.23
2022-11-18T20:29:02.073Z,67.05
2022-11-18T20:31:29.538Z,66.68
2022-11-18T20:33:57.462Z,67.04
2022-11-18T20:36:27.471Z,66.79
2022-11-18T20:38:56.964Z,66.95
2022-11-18T20:41:25.130Z,67.28
2022-11-18T20:43:52.599Z,67.14
2022-11-18T20:46:21.758Z,66.91
2022-11-18T20:48:49.917Z,66.79
2022-11-18T20:51:23.543Z,66.89
2022-11-18T20:53:51.448Z,66.91
2022-11-18T20:56:24.242Z,67.22
2022-11-18T20:58:51.873Z,67.05
2022-11-18T21:01:24.654Z,67.40
2022-11-18T21:03:57.170Z,67.38
2022-11-18T21:06:26.370Z,67.14
2022-11-18T21:09:11.553Z,66.93
2022-11-18T21:11:38.514Z,66.76
2022-11-18T21:14:22.887Z,66.62
2022-11-18T21:16:55.657Z,66.71
2022-11-18T21:19:22.805Z,66.77
2022-11-18T21:21:52.127Z,66.84
2022-11-18T21:24:20.453Z,66.67
2022-11-18T21:26:49.169Z,66.93
2022-11-18T21:29:17.495Z,67.13
2022-11-18T21:31:47.009Z,66.70
2022-11-18T21:34:15.406Z,66.63
2022-11-18T21:36:45.912Z,66.78
2022-11-18T21:39:15.125Z,66.75
2022-11-18T21:41:42.892Z,66.40
2022-11-18T21:44:11.809Z,66.60
2022-11-18T21:46:40.586Z,67.04
2022-11-18T21:49:07.830Z,67.19
2022-11-18T21:51:35.724Z,67.23
2022-11-18T21:54:03.598Z,67.71
2022-11-18T21:56:31.734Z,67.79
2022-11-18T21:59:00.572Z,67.91
2022-11-18T22:01:32.514Z,67.72
2022-11-18T22:04:02.100Z,67.90
2022-11-18T22:06:31.647Z,68.05
2022-11-18T22:08:58.885Z,68.36
2022-11-18T22:11:26.075Z,68.28
2022-11-18T22:13:53.561Z,68.20
2022-11-18T22:16:22.707Z,68.04
2022-11-18T22:18:56.535Z,68.04
2022-11-18T22:21:26.564Z,68.09
2022-11-18T22:23:57.988Z,68.10
2022-11-18T22:26:24.927Z,68.11
2022-11-18T22:28:57.107Z,67.96
2022-11-18T22:31:25.880Z,67.80
2022-11-18T22:33:54.120Z,67.85
2022-11-18T22:36:23.433Z,67.81
2022-11-18T22:38:50.740Z,67.87
2022-11-18T22:41:41.539Z,67.67
2022-11-18T22:44:09.975Z,67.50
2022-11-18T22:46:38.370Z,67.93
2022-11-18T22:49:05.999Z,68.15
2022-11-18T22:51:33.031Z,68.40
2022-11-18T22:54:30.848Z,68.29
2022-11-18T22:56:46.867Z,68.41
2022-11-18T22:59:14.045Z,68.82
2022-11-18T23:01:41.142Z,68.71
2022-11-18T23:04:08.224Z,68.50
2022-11-18T23:06:35.343Z,68.63
2022-11-18T23:09:02.661Z,68.80
2022-11-18T23:11:49.077Z,68.63
2022-11-18T23:14:16.166Z,68.62
2022-11-18T23:16:43.759Z,68.90
2022-11-18T23:19:17.466Z,69.11
2022-11-18T23:21:45.002Z,69.09
2022-11-18T23:24:17.375Z,69.43
2022-11-18T23:26:44.970Z,69.03
2022-11-18T23:29:13.222Z,69.32
2022-11-18T23:31:44.605Z,69.22
2022-11-18T23:34:13.704Z,69.38
2022-11-18T23:36:41.532Z,68.68
2022-11-18T23:39:08.955Z,68.75
2022-11-18T23:41:36.007Z,68.64
2022-11-18T23:44:03.013Z,68.82
2022-11-18T23:46:30.014Z,68.47
2022-11-18T23:48:59.745Z,68.15
2022-11-18T23:51:27.799Z,68.30
2022-11-18T23:53:56.514Z,68.49
2022-11-18T23:56:25.913Z,68.24
2022-11-18T23:58:56.705Z,67.83
